sensor_id;sensor_type;location;lat;lon;timestamp;temperature;humidity
16846;DHT22;8539;53.188;8.696;2022-09-01T00:00:10;15.10;91.70
16846;DHT22;8539;53.188;8.696;2022-09-01T00:02:38;15.10;91.70
16846;DHT22;8539;53.188;8.696;2022-09-01T00:05:05;15.00;91.70
16846;DHT22;8539;53.188;8.696;2022-09-01T00:07:33;15.00;91.80
16846;DHT22;8539;53.188;8.696;2022-09-01T00:10:02;15.00;91.80
16846;DHT22;8539;53.188;8.696;2022-09-01T00:12:29;15.00;91.90
16846;DHT22;8539;53.188;8.696;2022-09-01T00:14:56;14.90;92.00
16846;DHT22;8539;53.188;8.696;2022-09-01T00:17:24;14.90;92.00
16846;DHT22;8539;53.188;8.696;2022-09-01T00:19:50;14.80;92.10
16846;DHT22;8539;53.188;8.696;2022-09-01T00:22:17;14.80;92.20
16846;DHT22;8539;53.188;8.696;2022-09-01T00:24:43;14.80;92.30
16846;DHT22;8539;53.188;8.696;2022-09-01T00:27:09;14.80;92.30
16846;DHT22;8539;53.188;8.696;2022-09-01T00:29:36;14.80;92.50
16846;DHT22;8539;53.188;8.696;2022-09-01T00:32:03;14.70;92.60
16846;DHT22;8539;53.188;8.696;2022-09-01T00:34:30;14.70;92.70
16846;DHT22;8539;53.188;8.696;2022-09-01T00:36:57;14.70;92.80
16846;DHT22;8539;53.188;8.696;2022-09-01T00:39:23;14.70;92.90
16846;DHT22;8539;53.188;8.696;2022-09-01T00:41:50;14.70;93.00
16846;DHT22;8539;53.188;8.696;2022-09-01T00:44:19;14.70;93.00
16846;DHT22;8539;53.188;8.696;2022-09-01T00:46:53;14.70;93.10
16846;DHT22;8539;53.188;8.696;2022-09-01T00:49:39;14.60;93.20
16846;DHT22;8539;53.188;8.696;2022-09-01T00:52:16;14.60;93.30
16846;DHT22;8539;53.188;8.696;2022-09-01T00:54:48;14.60;93.40
16846;DHT22;8539;53.188;8.696;2022-09-01T00:57:15;14.60;93.50
16846;DHT22;8539;53.188;8.696;2022-09-01T00:59:52;14.50;93.60
16846;DHT22;8539;53.188;8.696;2022-09-01T01:02:19;14.50;93.80
16846;DHT22;8539;53.188;8.696;2022-09-01T01:04:48;14.50;93.90
16846;DHT22;8539;53.188;8.696;2022-09-01T01:07:22;14.40;94.00
16846;DHT22;8539;53.188;8.696;2022-09-01T01:09:49;14.40;94.10
16846;DHT22;8539;53.188;8.696;2022-09-01T01:12:17;14.30;94.20
16846;DHT22;8539;53.188;8.696;2022-09-01T01:14:48;14.40;94.40
16846;DHT22;8539;53.188;8.696;2022-09-01T01:17:19;14.30;94.50
16846;DHT22;8539;53.188;8.696;2022-09-01T01:19:52;14.30;94.60
16846;DHT22;8539;53.188;8.696;2022-09-01T01:22:49;14.30;94.80
16846;DHT22;8539;53.188;8.696;2022-09-01T01:25:40;14.30;94.90
16846;DHT22;8539;53.188;8.696;2022-09-01T01:30:34;14.20;95.20
16846;DHT22;8539;53.188;8.696;2022-09-01T01:33:04;14.20;95.40
16846;DHT22;8539;53.188;8.696;2022-09-01T01:35:31;14.20;95.50
16846;DHT22;8539;53.188;8.696;2022-09-01T01:37:59;14.20;95.80
16846;DHT22;8539;53.188;8.696;2022-09-01T01:40:27;14.20;96.00
16846;DHT22;8539;53.188;8.696;2022-09-01T01:42:54;14.10;96.10
16846;DHT22;8539;53.188;8.696;2022-09-01T01:45:23;14.10;96.30
16846;DHT22;8539;53.188;8.696;2022-09-01T01:47:51;14.20;96.50
16846;DHT22;8539;53.188;8.696;2022-09-01T01:50:20;14.20;96.70
16846;DHT22;8539;53.188;8.696;2022-09-01T01:52:46;14.20;96.80
16846;DHT22;8539;53.188;8.696;2022-09-01T01:55:13;14.10;97.00
16846;DHT22;8539;53.188;8.696;2022-09-01T01:57:47;14.10;97.10
16846;DHT22;8539;53.188;8.696;2022-09-01T02:00:20;14.10;97.30
16846;DHT22;8539;53.188;8.696;2022-09-01T02:02:48;14.10;97.40
16846;DHT22;8539;53.188;8.696;2022-09-01T02:05:23;14.10;97.50
16846;DHT22;8539;53.188;8.696;2022-09-01T02:07:55;14.10;97.60
16846;DHT22;8539;53.188;8.696;2022-09-01T02:10:27;14.10;97.80
16846;DHT22;8539;53.188;8.696;2022-09-01T02:12:56;14.00;97.90
16846;DHT22;8539;53.188;8.696;2022-09-01T02:15:29;14.00;98.00
16846;DHT22;8539;53.188;8.696;2022-09-01T02:17:57;14.00;98.20
16846;DHT22;8539;53.188;8.696;2022-09-01T02:20:26;14.00;98.30
16846;DHT22;8539;53.188;8.696;2022-09-01T02:22:58;13.90;98.50
16846;DHT22;8539;53.188;8.696;2022-09-01T02:25:37;13.90;98.60
16846;DHT22;8539;53.188;8.696;2022-09-01T02:28:04;13.90;98.80
16846;DHT22;8539;53.188;8.696;2022-09-01T02:30:34;13.80;98.90
16846;DHT22;8539;53.188;8.696;2022-09-01T02:33:02;13.80;99.10
16846;DHT22;8539;53.188;8.696;2022-09-01T02:35:29;13.80;99.30
16846;DHT22;8539;53.188;8.696;2022-09-01T02:37:59;13.80;99.50
16846;DHT22;8539;53.188;8.696;2022-09-01T02:40:27;13.80;99.60
16846;DHT22;8539;53.188;8.696;2022-09-01T02:42:58;13.70;99.70
16846;DHT22;8539;53.188;8.696;2022-09-01T02:45:26;13.70;99.80
16846;DHT22;8539;53.188;8.696;2022-09-01T02:47:55;13.70;99.90
16846;DHT22;8539;53.188;8.696;2022-09-01T02:50:22;13.60;99.90
16846;DHT22;8539;53.188;8.696;2022-09-01T02:52:50;13.60;99.90
16846;DHT22;8539;53.188;8.696;2022-09-01T02:55:20;13.60;99.90
16846;DHT22;8539;53.188;8.696;2022-09-01T02:57:50;13.60;99.90
16846;DHT22;8539;53.188;8.696;2022-09-01T03:00:20;13.60;99.90
16846;DHT22;8539;53.188;8.696;2022-09-01T03:02:56;13.60;99.90
16846;DHT22;8539;53.188;8.696;2022-09-01T03:05:25;13.60;99.90
16846;DHT22;8539;53.188;8.696;2022-09-01T03:07:55;13.50;99.90
16846;DHT22;8539;53.188;8.696;2022-09-01T03:10:29;13.50;99.90
16846;DHT22;8539;53.188;8.696;2022-09-01T03:13:06;13.50;99.90
16846;DHT22;8539;53.188;8.696;2022-09-01T03:15:34;13.50;99.90
16846;DHT22;8539;53.188;8.696;2022-09-01T03:18:05;13.40;99.90
16846;DHT22;8539;53.188;8.696;2022-09-01T03:20:34;13.50;99.90
16846;DHT22;8539;53.188;8.696;2022-09-01T03:23:03;13.20;99.90
16846;DHT22;8539;53.188;8.696;2022-09-01T03:25:30;13.40;99.90
16846;DHT22;8539;53.188;8.696;2022-09-01T03:27:57;13.40;99.90
16846;DHT22;8539;53.188;8.696;2022-09-01T03:30:30;13.30;99.90
16846;DHT22;8539;53.188;8.696;2022-09-01T03:32:57;13.30;99.90
16846;DHT22;8539;53.188;8.696;2022-09-01T03:35:25;13.40;99.90
16846;DHT22;8539;53.188;8.696;2022-09-01T03:37:54;13.40;99.90
16846;DHT22;8539;53.188;8.696;2022-09-01T03:40:29;13.30;99.90
16846;DHT22;8539;53.188;8.696;2022-09-01T03:42:58;13.30;99.90
16846;DHT22;8539;53.188;8.696;2022-09-01T03:45:25;13.30;99.90
16846;DHT22;8539;53.188;8.696;2022-09-01T03:47:52;13.20;99.90
16846;DHT22;8539;53.188;8.696;2022-09-01T03:50:21;13.20;99.90
16846;DHT22;8539;53.188;8.696;2022-09-01T03:52:54;13.20;99.90
16846;DHT22;8539;53.188;8.696;2022-09-01T03:55:25;13.20;99.90
16846;DHT22;8539;53.188;8.696;2022-09-01T03:57:53;13.20;99.90
16846;DHT22;8539;53.188;8.696;2022-09-01T04:00:24;13.20;99.90
16846;DHT22;8539;53.188;8.696;2022-09-01T04:02:52;13.20;99.90
16846;DHT22;8539;53.188;8.696;2022-09-01T04:05:23;13.20;99.90
16846;DHT22;8539;53.188;8.696;2022-09-01T04:07:58;13.20;99.90
16846;DHT22;8539;53.188;8.696;2022-09-01T04:10:27;13.20;99.90
16846;DHT22;8539;53.188;8.696;2022-09-01T04:12:53;13.20;99.90
16846;DHT22;8539;53.188;8.696;2022-09-01T04:15:25;13.20;99.90
16846;DHT22;8539;53.188;8.696;2022-09-01T04:17:52;13.20;99.90
16846;DHT22;8539;53.188;8.696;2022-09-01T04:20:39;13.20;99.90
16846;DHT22;8539;53.188;8.696;2022-09-01T04:23:28;13.20;99.90
16846;DHT22;8539;53.188;8.696;2022-09-01T04:25:58;13.20;99.90
16846;DHT22;8539;53.188;8.696;2022-09-01T04:28:31;13.20;99.90
16846;DHT22;8539;53.188;8.696;2022-09-01T04:31:03;13.20;99.90
16846;DHT22;8539;53.188;8.696;2022-09-01T04:33:35;13.20;99.90
16846;DHT22;8539;53.188;8.696;2022-09-01T04:36:05;13.20;99.90
16846;DHT22;8539;53.188;8.696;2022-09-01T04:38:32;13.20;99.90
16846;DHT22;8539;53.188;8.696;2022-09-01T04:41:05;13.20;99.90
16846;DHT22;8539;53.188;8.696;2022-09-01T04:43:33;13.20;99.90
16846;DHT22;8539;53.188;8.696;2022-09-01T04:46:01;13.20;99.90
16846;DHT22;8539;53.188;8.696;2022-09-01T04:48:28;13.20;99.90
16846;DHT22;8539;53.188;8.696;2022-09-01T04:50:54;13.20;99.90
16846;DHT22;8539;53.188;8.696;2022-09-01T04:53:21;13.20;99.90
16846;DHT22;8539;53.188;8.696;2022-09-01T04:55:50;13.20;99.90
16846;DHT22;8539;53.188;8.696;2022-09-01T04:58:20;13.20;99.90
16846;DHT22;8539;53.188;8.696;2022-09-01T05:00:48;13.20;99.90
16846;DHT22;8539;53.188;8.696;2022-09-01T05:03:17;13.20;99.90
16846;DHT22;8539;53.188;8.696;2022-09-01T05:05:46;13.30;99.90
16846;DHT22;8539;53.188;8.696;2022-09-01T05:08:16;13.30;99.90
16846;DHT22;8539;53.188;8.696;2022-09-01T05:10:46;13.30;99.90
16846;DHT22;8539;53.188;8.696;2022-09-01T05:13:15;13.30;99.90
16846;DHT22;8539;53.188;8.696;2022-09-01T05:15:44;13.40;99.90
16846;DHT22;8539;53.188;8.696;2022-09-01T05:18:18;13.40;99.90
16846;DHT22;8539;53.188;8.696;2022-09-01T05:20:53;13.40;99.90
16846;DHT22;8539;53.188;8.696;2022-09-01T05:23:20;13.40;99.90
16846;DHT22;8539;53.188;8.696;2022-09-01T05:25:51;13.50;99.90
16846;DHT22;8539;53.188;8.696;2022-09-01T05:28:20;13.50;99.90
16846;DHT22;8539;53.188;8.696;2022-09-01T05:30:50;13.50;99.90
16846;DHT22;8539;53.188;8.696;2022-09-01T05:33:19;13.60;99.90
16846;DHT22;8539;53.188;8.696;2022-09-01T05:35:57;13.70;99.90
16846;DHT22;8539;53.188;8.696;2022-09-01T05:38:27;13.70;99.90
16846;DHT22;8539;53.188;8.696;2022-09-01T05:40:58;13.80;99.90
16846;DHT22;8539;53.188;8.696;2022-09-01T05:43:27;13.80;99.90
16846;DHT22;8539;53.188;8.696;2022-09-01T05:45:53;13.90;99.90
16846;DHT22;8539;53.188;8.696;2022-09-01T05:48:21;13.90;99.90
16846;DHT22;8539;53.188;8.696;2022-09-01T05:50:50;14.00;99.90
16846;DHT22;8539;53.188;8.696;2022-09-01T05:53:21;14.00;99.90
16846;DHT22;8539;53.188;8.696;2022-09-01T05:55:51;14.10;99.90
16846;DHT22;8539;53.188;8.696;2022-09-01T05:58:24;14.20;99.90
16846;DHT22;8539;53.188;8.696;2022-09-01T06:00:52;14.20;99.90
16846;DHT22;8539;53.188;8.696;2022-09-01T06:03:20;14.30;99.90
16846;DHT22;8539;53.188;8.696;2022-09-01T06:05:47;14.30;99.90
16846;DHT22;8539;53.188;8.696;2022-09-01T06:08:22;14.40;99.90
16846;DHT22;8539;53.188;8.696;2022-09-01T06:10:51;14.50;99.90
16846;DHT22;8539;53.188;8.696;2022-09-01T06:13:18;14.50;99.90
16846;DHT22;8539;53.188;8.696;2022-09-01T06:15:48;14.60;99.90
16846;DHT22;8539;53.188;8.696;2022-09-01T06:18:14;14.70;99.90
16846;DHT22;8539;53.188;8.696;2022-09-01T06:20:45;14.80;99.90
16846;DHT22;8539;53.188;8.696;2022-09-01T06:23:12;15.10;99.90
16846;DHT22;8539;53.188;8.696;2022-09-01T06:25:41;15.70;99.90
16846;DHT22;8539;53.188;8.696;2022-09-01T06:28:16;16.50;99.90
16846;DHT22;8539;53.188;8.696;2022-09-01T06:30:43;17.20;99.90
16846;DHT22;8539;53.188;8.696;2022-09-01T06:33:11;17.60;99.90
16846;DHT22;8539;53.188;8.696;2022-09-01T06:35:43;17.70;99.90
16846;DHT22;8539;53.188;8.696;2022-09-01T06:38:12;17.60;99.90
16846;DHT22;8539;53.188;8.696;2022-09-01T06:40:40;17.60;99.90
16846;DHT22;8539;53.188;8.696;2022-09-01T06:43:09;17.70;99.90
16846;DHT22;8539;53.188;8.696;2022-09-01T06:45:45;17.80;99.90
16846;DHT22;8539;53.188;8.696;2022-09-01T06:48:19;17.90;99.90
16846;DHT22;8539;53.188;8.696;2022-09-01T06:50:47;18.10;99.90
16846;DHT22;8539;53.188;8.696;2022-09-01T06:53:13;18.00;99.90
16846;DHT22;8539;53.188;8.696;2022-09-01T06:55:47;17.90;99.90
16846;DHT22;8539;53.188;8.696;2022-09-01T06:58:14;17.80;99.90
16846;DHT22;8539;53.188;8.696;2022-09-01T07:00:41;17.60;99.90
16846;DHT22;8539;53.188;8.696;2022-09-01T07:03:10;17.50;99.90
16846;DHT22;8539;53.188;8.696;2022-09-01T07:05:39;17.50;99.90
16846;DHT22;8539;53.188;8.696;2022-09-01T07:08:07;17.40;99.90
16846;DHT22;8539;53.188;8.696;2022-09-01T07:10:41;17.40;99.90
16846;DHT22;8539;53.188;8.696;2022-09-01T07:13:16;17.30;99.90
16846;DHT22;8539;53.188;8.696;2022-09-01T07:15:46;17.30;99.90
16846;DHT22;8539;53.188;8.696;2022-09-01T07:18:21;17.40;99.90
16846;DHT22;8539;53.188;8.696;2022-09-01T07:20:50;17.40;99.90
16846;DHT22;8539;53.188;8.696;2022-09-01T07:23:18;17.40;99.90
16846;DHT22;8539;53.188;8.696;2022-09-01T07:25:47;17.50;99.90
16846;DHT22;8539;53.188;8.696;2022-09-01T07:28:16;17.50;99.90
16846;DHT22;8539;53.188;8.696;2022-09-01T07:30:46;17.60;99.90
16846;DHT22;8539;53.188;8.696;2022-09-01T07:33:15;17.70;99.90
16846;DHT22;8539;53.188;8.696;2022-09-01T07:35:46;17.80;99.90
16846;DHT22;8539;53.188;8.696;2022-09-01T07:38:12;17.90;99.90
16846;DHT22;8539;53.188;8.696;2022-09-01T07:40:41;18.00;99.90
16846;DHT22;8539;53.188;8.696;2022-09-01T07:43:17;18.10;99.90
16846;DHT22;8539;53.188;8.696;2022-09-01T07:45:52;18.20;99.80
16846;DHT22;8539;53.188;8.696;2022-09-01T07:48:22;18.30;99.70
16846;DHT22;8539;53.188;8.696;2022-09-01T07:50:51;18.40;99.50
16846;DHT22;8539;53.188;8.696;2022-09-01T07:53:23;18.40;99.20
16846;DHT22;8539;53.188;8.696;2022-09-01T07:55:52;18.50;98.90
16846;DHT22;8539;53.188;8.696;2022-09-01T07:58:22;18.50;98.40
16846;DHT22;8539;53.188;8.696;2022-09-01T08:00:49;18.60;98.10
16846;DHT22;8539;53.188;8.696;2022-09-01T08:03:18;18.60;97.60
16846;DHT22;8539;53.188;8.696;2022-09-01T08:05:45;18.60;97.20
16846;DHT22;8539;53.188;8.696;2022-09-01T08:08:14;18.70;96.90
16846;DHT22;8539;53.188;8.696;2022-09-01T08:10:41;18.70;96.70
16846;DHT22;8539;53.188;8.696;2022-09-01T08:13:08;18.80;96.50
16846;DHT22;8539;53.188;8.696;2022-09-01T08:15:37;19.00;96.20
16846;DHT22;8539;53.188;8.696;2022-09-01T08:18:03;19.00;96.00
16846;DHT22;8539;53.188;8.696;2022-09-01T08:20:30;19.10;95.80
16846;DHT22;8539;53.188;8.696;2022-09-01T08:23:00;19.20;95.50
16846;DHT22;8539;53.188;8.696;2022-09-01T08:25:28;19.30;95.10
16846;DHT22;8539;53.188;8.696;2022-09-01T08:27:54;19.40;94.60
16846;DHT22;8539;53.188;8.696;2022-09-01T08:30:22;19.40;94.20
16846;DHT22;8539;53.188;8.696;2022-09-01T08:32:48;19.60;93.80
16846;DHT22;8539;53.188;8.696;2022-09-01T08:35:15;19.60;93.40
16846;DHT22;8539;53.188;8.696;2022-09-01T08:37:42;19.70;93.00
16846;DHT22;8539;53.188;8.696;2022-09-01T08:40:13;19.70;92.80
16846;DHT22;8539;53.188;8.696;2022-09-01T08:45:28;20.00;92.30
16846;DHT22;8539;53.188;8.696;2022-09-01T08:48:01;20.20;92.10
16846;DHT22;8539;53.188;8.696;2022-09-01T08:50:33;20.30;91.90
16846;DHT22;8539;53.188;8.696;2022-09-01T08:55:49;20.60;91.30
16846;DHT22;8539;53.188;8.696;2022-09-01T08:58:17;20.80;90.90
16846;DHT22;8539;53.188;8.696;2022-09-01T09:00:46;21.00;90.10
16846;DHT22;8539;53.188;8.696;2022-09-01T09:03:31;21.20;89.10
16846;DHT22;8539;53.188;8.696;2022-09-01T09:08:52;21.40;87.40
16846;DHT22;8539;53.188;8.696;2022-09-01T09:11:45;21.60;86.40
16846;DHT22;8539;53.188;8.696;2022-09-01T09:17:28;22.00;84.90
16846;DHT22;8539;53.188;8.696;2022-09-01T09:19:56;22.20;83.40
16846;DHT22;8539;53.188;8.696;2022-09-01T09:22:22;22.40;82.50
16846;DHT22;8539;53.188;8.696;2022-09-01T09:24:51;22.50;82.40
16846;DHT22;8539;53.188;8.696;2022-09-01T09:27:38;22.80;80.40
16846;DHT22;8539;53.188;8.696;2022-09-01T09:30:08;23.00;78.10
16846;DHT22;8539;53.188;8.696;2022-09-01T09:33:02;23.10;76.80
16846;DHT22;8539;53.188;8.696;2022-09-01T09:35:45;23.20;76.50
16846;DHT22;8539;53.188;8.696;2022-09-01T09:43:28;23.80;74.40
16846;DHT22;8539;53.188;8.696;2022-09-01T09:46:21;24.00;74.10
16846;DHT22;8539;53.188;8.696;2022-09-01T09:51:37;24.70;73.60
16846;DHT22;8539;53.188;8.696;2022-09-01T09:54:34;25.00;72.50
16846;DHT22;8539;53.188;8.696;2022-09-01T09:57:14;25.20;72.00
16846;DHT22;8539;53.188;8.696;2022-09-01T09:59:54;25.50;69.90
16846;DHT22;8539;53.188;8.696;2022-09-01T10:02:35;25.50;68.50
16846;DHT22;8539;53.188;8.696;2022-09-01T10:07:50;25.40;66.80
16846;DHT22;8539;53.188;8.696;2022-09-01T10:13:03;25.40;66.40
16846;DHT22;8539;53.188;8.696;2022-09-01T10:15:31;25.60;66.20
16846;DHT22;8539;53.188;8.696;2022-09-01T10:18:18;25.60;65.90
16846;DHT22;8539;53.188;8.696;2022-09-01T10:20:59;25.80;65.80
16846;DHT22;8539;53.188;8.696;2022-09-01T10:23:30;26.10;65.70
16846;DHT22;8539;53.188;8.696;2022-09-01T10:26:08;26.30;65.00
16846;DHT22;8539;53.188;8.696;2022-09-01T10:29:07;26.20;64.60
16846;DHT22;8539;53.188;8.696;2022-09-01T10:31:36;26.20;64.20
16846;DHT22;8539;53.188;8.696;2022-09-01T10:34:04;26.20;64.00
16846;DHT22;8539;53.188;8.696;2022-09-01T10:36:32;26.30;63.60
16846;DHT22;8539;53.188;8.696;2022-09-01T10:38:59;26.20;63.50
16846;DHT22;8539;53.188;8.696;2022-09-01T10:44:31;26.30;63.60
16846;DHT22;8539;53.188;8.696;2022-09-01T10:55:42;26.10;62.20
16846;DHT22;8539;53.188;8.696;2022-09-01T11:00:48;26.20;62.40
16846;DHT22;8539;53.188;8.696;2022-09-01T11:18:49;26.20;62.20
16846;DHT22;8539;53.188;8.696;2022-09-01T11:21:27;26.20;62.10
16846;DHT22;8539;53.188;8.696;2022-09-01T11:26:57;26.10;61.50
16846;DHT22;8539;53.188;8.696;2022-09-01T11:29:53;26.10;61.40
16846;DHT22;8539;53.188;8.696;2022-09-01T11:32:23;26.10;61.30
16846;DHT22;8539;53.188;8.696;2022-09-01T11:34:52;26.00;61.20
16846;DHT22;8539;53.188;8.696;2022-09-01T11:37:23;26.10;61.00
16846;DHT22;8539;53.188;8.696;2022-09-01T11:39:55;26.20;60.90
16846;DHT22;8539;53.188;8.696;2022-09-01T11:42:39;26.20;60.90
16846;DHT22;8539;53.188;8.696;2022-09-01T11:47:50;26.40;60.40
16846;DHT22;8539;53.188;8.696;2022-09-01T11:50:29;26.40;60.10
16846;DHT22;8539;53.188;8.696;2022-09-01T11:53:02;26.50;60.00
16846;DHT22;8539;53.188;8.696;2022-09-01T11:55:38;26.60;59.80
16846;DHT22;8539;53.188;8.696;2022-09-01T11:58:13;26.50;59.10
16846;DHT22;8539;53.188;8.696;2022-09-01T12:00:54;26.20;58.80
16846;DHT22;8539;53.188;8.696;2022-09-01T12:03:27;26.00;58.50
16846;DHT22;8539;53.188;8.696;2022-09-01T12:05:57;26.00;58.10
16846;DHT22;8539;53.188;8.696;2022-09-01T12:08:29;26.00;57.90
16846;DHT22;8539;53.188;8.696;2022-09-01T12:11:24;26.00;57.80
16846;DHT22;8539;53.188;8.696;2022-09-01T12:14:06;26.00;57.90
16846;DHT22;8539;53.188;8.696;2022-09-01T12:16:34;26.00;58.20
16846;DHT22;8539;53.188;8.696;2022-09-01T12:19:04;26.10;58.00
16846;DHT22;8539;53.188;8.696;2022-09-01T12:26:45;25.90;57.80
16846;DHT22;8539;53.188;8.696;2022-09-01T12:29:12;25.60;57.60
16846;DHT22;8539;53.188;8.696;2022-09-01T12:31:44;25.30;57.50
16846;DHT22;8539;53.188;8.696;2022-09-01T12:34:41;25.10;57.50
16846;DHT22;8539;53.188;8.696;2022-09-01T12:37:17;24.80;57.80
16846;DHT22;8539;53.188;8.696;2022-09-01T12:39:47;24.70;58.40
16846;DHT22;8539;53.188;8.696;2022-09-01T12:52:51;25.30;59.30
16846;DHT22;8539;53.188;8.696;2022-09-01T12:55:24;25.50;59.00
16846;DHT22;8539;53.188;8.696;2022-09-01T12:57:53;25.60;58.10
16846;DHT22;8539;53.188;8.696;2022-09-01T13:00:23;25.40;58.00
16846;DHT22;8539;53.188;8.696;2022-09-01T13:08:01;25.30;57.00
16846;DHT22;8539;53.188;8.696;2022-09-01T13:10:33;25.50;56.90
16846;DHT22;8539;53.188;8.696;2022-09-01T13:13:04;25.60;57.00
16846;DHT22;8539;53.188;8.696;2022-09-01T13:15:32;25.80;56.80
16846;DHT22;8539;53.188;8.696;2022-09-01T13:17:58;25.80;56.90
16846;DHT22;8539;53.188;8.696;2022-09-01T13:20:24;25.60;56.90
16846;DHT22;8539;53.188;8.696;2022-09-01T13:22:51;25.50;56.90
16846;DHT22;8539;53.188;8.696;2022-09-01T13:25:20;25.30;56.90
16846;DHT22;8539;53.188;8.696;2022-09-01T13:27:47;25.10;56.80
16846;DHT22;8539;53.188;8.696;2022-09-01T13:30:16;25.10;57.00
16846;DHT22;8539;53.188;8.696;2022-09-01T13:32:44;25.10;57.00
16846;DHT22;8539;53.188;8.696;2022-09-01T13:35:13;25.20;57.20
16846;DHT22;8539;53.188;8.696;2022-09-01T13:37:41;25.30;57.00
16846;DHT22;8539;53.188;8.696;2022-09-01T13:40:08;25.30;56.90
16846;DHT22;8539;53.188;8.696;2022-09-01T13:42:49;25.30;56.90
16846;DHT22;8539;53.188;8.696;2022-09-01T13:45:17;25.30;57.00
16846;DHT22;8539;53.188;8.696;2022-09-01T13:47:46;25.40;56.90
16846;DHT22;8539;53.188;8.696;2022-09-01T13:50:14;25.50;56.80
16846;DHT22;8539;53.188;8.696;2022-09-01T13:52:48;25.50;56.80
16846;DHT22;8539;53.188;8.696;2022-09-01T13:55:21;25.50;56.70
16846;DHT22;8539;53.188;8.696;2022-09-01T13:57:47;25.40;56.60
16846;DHT22;8539;53.188;8.696;2022-09-01T14:00:16;25.40;56.20
16846;DHT22;8539;53.188;8.696;2022-09-01T14:02:45;25.20;56.10
16846;DHT22;8539;53.188;8.696;2022-09-01T14:05:17;25.00;55.90
16846;DHT22;8539;53.188;8.696;2022-09-01T14:07:44;24.90;55.80
16846;DHT22;8539;53.188;8.696;2022-09-01T14:10:10;24.90;55.70
16846;DHT22;8539;53.188;8.696;2022-09-01T14:12:37;24.90;55.90
16846;DHT22;8539;53.188;8.696;2022-09-01T14:15:05;24.90;56.00
16846;DHT22;8539;53.188;8.696;2022-09-01T14:17:31;25.00;55.90
16846;DHT22;8539;53.188;8.696;2022-09-01T14:19:57;25.00;56.00
16846;DHT22;8539;53.188;8.696;2022-09-01T14:22:23;25.10;56.30
16846;DHT22;8539;53.188;8.696;2022-09-01T14:24:49;25.20;56.40
16846;DHT22;8539;53.188;8.696;2022-09-01T14:27:15;25.30;56.40
16846;DHT22;8539;53.188;8.696;2022-09-01T14:29:41;25.50;56.40
16846;DHT22;8539;53.188;8.696;2022-09-01T14:32:08;25.60;56.30
16846;DHT22;8539;53.188;8.696;2022-09-01T14:34:36;25.70;56.20
16846;DHT22;8539;53.188;8.696;2022-09-01T14:37:02;25.70;55.90
16846;DHT22;8539;53.188;8.696;2022-09-01T14:39:29;25.70;55.50
16846;DHT22;8539;53.188;8.696;2022-09-01T14:41:55;25.70;55.20
16846;DHT22;8539;53.188;8.696;2022-09-01T14:44:23;25.70;55.00
16846;DHT22;8539;53.188;8.696;2022-09-01T14:46:49;25.70;54.80
16846;DHT22;8539;53.188;8.696;2022-09-01T14:49:15;25.60;54.60
16846;DHT22;8539;53.188;8.696;2022-09-01T14:51:42;25.60;54.40
16846;DHT22;8539;53.188;8.696;2022-09-01T14:54:08;25.60;54.60
16846;DHT22;8539;53.188;8.696;2022-09-01T14:56:34;25.70;54.70
16846;DHT22;8539;53.188;8.696;2022-09-01T14:59:01;25.60;54.60
16846;DHT22;8539;53.188;8.696;2022-09-01T15:01:28;25.50;54.70
16846;DHT22;8539;53.188;8.696;2022-09-01T15:03:54;25.20;54.90
16846;DHT22;8539;53.188;8.696;2022-09-01T15:06:21;25.00;55.10
16846;DHT22;8539;53.188;8.696;2022-09-01T15:08:48;24.80;55.40
16846;DHT22;8539;53.188;8.696;2022-09-01T15:11:17;24.70;55.60
16846;DHT22;8539;53.188;8.696;2022-09-01T15:13:44;24.70;55.80
16846;DHT22;8539;53.188;8.696;2022-09-01T15:16:14;24.80;55.80
16846;DHT22;8539;53.188;8.696;2022-09-01T15:18:41;24.90;55.80
16846;DHT22;8539;53.188;8.696;2022-09-01T15:21:16;25.00;55.80
16846;DHT22;8539;53.188;8.696;2022-09-01T15:23:42;25.10;55.40
16846;DHT22;8539;53.188;8.696;2022-09-01T15:26:08;25.10;55.10
16846;DHT22;8539;53.188;8.696;2022-09-01T15:28:35;25.20;54.90
16846;DHT22;8539;53.188;8.696;2022-09-01T15:31:01;25.30;55.20
16846;DHT22;8539;53.188;8.696;2022-09-01T15:33:27;25.30;54.90
16846;DHT22;8539;53.188;8.696;2022-09-01T15:35:54;25.30;54.60
16846;DHT22;8539;53.188;8.696;2022-09-01T15:38:25;25.30;54.70
16846;DHT22;8539;53.188;8.696;2022-09-01T15:40:51;25.30;54.60
16846;DHT22;8539;53.188;8.696;2022-09-01T15:43:18;25.20;54.80
16846;DHT22;8539;53.188;8.696;2022-09-01T15:45:45;25.20;54.60
16846;DHT22;8539;53.188;8.696;2022-09-01T15:48:11;25.20;54.90
16846;DHT22;8539;53.188;8.696;2022-09-01T15:50:37;25.10;55.10
16846;DHT22;8539;53.188;8.696;2022-09-01T15:53:04;25.00;55.20
16846;DHT22;8539;53.188;8.696;2022-09-01T15:55:42;24.80;55.40
16846;DHT22;8539;53.188;8.696;2022-09-01T15:58:11;24.50;55.40
16846;DHT22;8539;53.188;8.696;2022-09-01T16:00:39;24.30;55.50
16846;DHT22;8539;53.188;8.696;2022-09-01T16:03:05;24.10;55.70
16846;DHT22;8539;53.188;8.696;2022-09-01T16:05:35;23.90;56.00
16846;DHT22;8539;53.188;8.696;2022-09-01T16:08:02;23.90;57.20
16846;DHT22;8539;53.188;8.696;2022-09-01T16:10:30;23.90;57.30
16846;DHT22;8539;53.188;8.696;2022-09-01T16:12:57;23.90;57.50
16846;DHT22;8539;53.188;8.696;2022-09-01T16:15:24;23.90;57.70
16846;DHT22;8539;53.188;8.696;2022-09-01T16:23:24;24.00;57.00
16846;DHT22;8539;53.188;8.696;2022-09-01T16:25:58;24.00;56.80
16846;DHT22;8539;53.188;8.696;2022-09-01T16:28:30;24.00;56.40
16846;DHT22;8539;53.188;8.696;2022-09-01T16:31:14;24.00;56.20
16846;DHT22;8539;53.188;8.696;2022-09-01T16:33:48;23.90;55.90
16846;DHT22;8539;53.188;8.696;2022-09-01T16:39:15;23.80;55.70
16846;DHT22;8539;53.188;8.696;2022-09-01T16:44:30;23.70;55.70
16846;DHT22;8539;53.188;8.696;2022-09-01T16:58:19;23.30;56.60
16846;DHT22;8539;53.188;8.696;2022-09-01T17:06:29;23.10;57.70
16846;DHT22;8539;53.188;8.696;2022-09-01T17:11:51;23.00;58.10
16846;DHT22;8539;53.188;8.696;2022-09-01T17:14:36;22.90;58.40
16846;DHT22;8539;53.188;8.696;2022-09-01T17:17:08;22.80;58.60
16846;DHT22;8539;53.188;8.696;2022-09-01T17:19:38;22.80;58.80
16846;DHT22;8539;53.188;8.696;2022-09-01T17:22:14;22.70;59.10
16846;DHT22;8539;53.188;8.696;2022-09-01T17:24:53;22.70;59.20
16846;DHT22;8539;53.188;8.696;2022-09-01T17:27:28;22.70;59.50
16846;DHT22;8539;53.188;8.696;2022-09-01T17:29:57;22.60;59.70
16846;DHT22;8539;53.188;8.696;2022-09-01T17:41:10;22.10;60.40
16846;DHT22;8539;53.188;8.696;2022-09-01T17:43:47;22.00;60.70
16846;DHT22;8539;53.188;8.696;2022-09-01T17:49:10;21.70;61.40
16846;DHT22;8539;53.188;8.696;2022-09-01T18:05:32;21.00;63.20
16846;DHT22;8539;53.188;8.696;2022-09-01T18:08:27;20.80;63.60
16846;DHT22;8539;53.188;8.696;2022-09-01T18:11:00;20.70;63.90
16846;DHT22;8539;53.188;8.696;2022-09-01T18:16:29;20.50;64.80
16846;DHT22;8539;53.188;8.696;2022-09-01T18:19:11;20.50;65.20
16846;DHT22;8539;53.188;8.696;2022-09-01T18:21:43;20.40;65.70
16846;DHT22;8539;53.188;8.696;2022-09-01T18:24:20;20.30;66.20
16846;DHT22;8539;53.188;8.696;2022-09-01T18:26:49;20.20;66.60
16846;DHT22;8539;53.188;8.696;2022-09-01T18:29:16;20.10;67.00